Main page
METAR-TAF:

METAR-TAF

Airports :

Girona, Spain

Girona–Costa Brava Airport

latitude: 41-54N, longitude: 002-46E, elevation: 143 m

Current weather observation

The report was made 36 minutes ago, at 01:30 UTC
Wind 3 kt from the West/Southwest
Temperature 12°C
Humidity 82%
Pressure 1017 hPa
Visibility 10 km or more
no clouds below 1500 m and no cumulonimbus

METAR: LEGE 290130Z 24003KT CAVOK 12/09 Q1017

Time: 04:06 (02:06 UTC)

Forecast

The report was made 3 hours and 6 minutes ago, at 23:00 UTC
Forecast valid from 29 at 00 UTC to 29 at 24 UTC
Wind 4 kt from variable directions
Visibility 10 km or more
Few clouds at a height of 3000 ft
Becoming
from 29 at 08 UTC to 29 at 10 UTC
Wind 10 kt from the South
Temporary
from 29 at 12 UTC to 29 at 16 UTC
Wind 15 kt from the South with gusts up to 25 kt
Becoming
from 29 at 20 UTC to 29 at 22 UTC
Wind 3 kt from variable directions

TAF: LEGE 282300Z 2900/2924 VRB04KT 9999 FEW030 TX31/2913Z TN16/2906Z BECMG 2908/2910 18010KT TEMPO 2912/2916 18015G25KT BECMG 2920/2922 VRB03KT

Weather observations and forecasts of more than 4000 airports (METAR and TAF reports).

The available stations are represented by yellow and red dots on the map.

Hover mouse over dot to see the name of the station.

Then click to see weather observations and forecasts.

To change the map : click on the green buttons with a black cross to zoom in, on the green button with a dash to zoom out, or on the green arrows for adjacent maps.


METAR-TAF: